Time;durP1;ratioP1;P1;durP2;ratioP2;P2;SDS_P1;SDS_P2;PMS_P1;PMS_P2;Temp;Humidity;BMP_temperature;BMP_pressure;BME280_temperature;BME280_humidity;BME280_pressure;Samples;Min_cycle;Max_cycle;Signal;HPM_P1;HPM_P2
2021/06/25 00:02:17;;;;;;;13.57;11.40;;;18.00;99.90;;;;;;5097163;28;20415;-61
2021/06/25 00:04:44;;;;;;;12.40;9.97;;;18.00;99.90;;;;;;5098005;28;20600;-61
2021/06/25 00:07:11;;;;;;;11.87;9.50;;;18.10;99.90;;;;;;5098531;28;20486;-61
2021/06/25 00:09:38;;;;;;;11.70;10.37;;;18.10;99.90;;;;;;5086601;28;20942;-60
2021/06/25 00:12:07;;;;;;;16.33;11.83;;;18.00;99.90;;;;;;5098781;28;20444;-62
2021/06/25 00:14:36;;;;;;;17.50;11.30;;;17.90;99.90;;;;;;5094390;28;20445;-61
2021/06/25 00:17:04;;;;;;;11.63;10.53;;;17.70;99.90;;;;;;5090899;28;20770;-60
2021/06/25 00:19:31;;;;;;;16.03;11.77;;;17.70;99.90;;;;;;5089210;28;20458;-61
2021/06/25 00:21:59;;;;;;;14.00;11.90;;;17.70;99.90;;;;;;5091664;28;20412;-61
2021/06/25 00:24:26;;;;;;;14.40;10.97;;;17.60;99.90;;;;;;5097290;28;20669;-61
2021/06/25 00:26:53;;;;;;;12.90;11.60;;;17.50;99.90;;;;;;5093342;28;20754;-62
2021/06/25 00:29:21;;;;;;;11.80;10.60;;;17.50;99.90;;;;;;5095094;28;20430;-61
2021/06/25 00:31:49;;;;;;;13.67;12.23;;;17.50;99.90;;;;;;5089983;28;20407;-62
2021/06/25 00:34:16;;;;;;;10.90;9.87;;;17.50;99.90;;;;;;5098543;28;20419;-61
2021/06/25 00:36:43;;;;;;;12.07;10.57;;;17.60;99.90;;;;;;5083959;28;20440;-62
2021/06/25 00:39:11;;;;;;;14.27;12.17;;;17.50;99.90;;;;;;5095205;28;20433;-62
2021/06/25 00:41:38;;;;;;;13.70;12.27;;;18.40;99.90;;;;;;5082162;28;20448;-61
2021/06/25 00:44:12;;;;;;;15.60;12.70;;;17.40;99.90;;;;;;5097690;28;20414;-61
2021/06/25 00:46:39;;;;;;;12.20;11.00;;;17.30;99.90;;;;;;5096781;28;20448;-61
2021/06/25 00:49:06;;;;;;;13.23;11.90;;;17.20;99.90;;;;;;5096422;28;20547;-60
2021/06/25 00:51:33;;;;;;;15.23;11.93;;;17.30;99.90;;;;;;5096783;28;20482;-61
2021/06/25 00:54:00;;;;;;;12.30;11.07;;;18.10;99.90;;;;;;5096927;28;20419;-61
2021/06/25 00:56:27;;;;;;;15.77;13.80;;;17.20;99.90;;;;;;5097441;28;20475;-61
2021/06/25 00:58:55;;;;;;;13.10;10.90;;;17.70;99.90;;;;;;5096447;28;20415;-61
2021/06/25 01:01:22;;;;;;;13.27;11.77;;;17.20;99.90;;;;;;5097483;28;20427;-61
2021/06/25 01:03:49;;;;;;;14.07;11.13;;;17.20;99.90;;;;;;5085667;28;20770;-60
2021/06/25 01:06:16;;;;;;;16.00;12.10;;;17.20;99.90;;;;;;5084516;28;20602;-62
2021/06/25 01:08:44;;;;;;;14.83;12.97;;;18.10;99.90;;;;;;5085927;28;20452;-61
2021/06/25 01:11:11;;;;;;;15.17;12.53;;;17.30;99.90;;;;;;5079872;28;20534;-60
2021/06/25 01:13:38;;;;;;;17.67;13.50;;;17.30;99.90;;;;;;5091639;28;20444;-62
2021/06/25 01:16:06;;;;;;;17.23;15.47;;;17.20;99.90;;;;;;5093117;28;20495;-60
2021/06/25 01:18:34;;;;;;;15.13;13.53;;;18.20;99.90;;;;;;5097855;28;20444;-61
2021/06/25 01:21:02;;;;;;;16.55;13.73;;;16.90;99.90;;;;;;5094645;28;20493;-60
2021/06/25 01:23:29;;;;;;;14.38;12.15;;;16.90;99.90;;;;;;5088730;28;20260;-60
2021/06/25 01:25:56;;;;;;;13.10;11.80;;;16.80;99.90;;;;;;5097251;28;20479;-61
2021/06/25 01:28:23;;;;;;;18.02;13.77;;;16.80;99.90;;;;;;5098320;28;20490;-60
2021/06/25 01:30:51;;;;;;;13.70;11.07;;;16.70;99.90;;;;;;5095796;28;20230;-60
2021/06/25 01:33:19;;;;;;;14.83;11.83;;;16.70;99.90;;;;;;5088898;28;20477;-60
2021/06/25 01:35:46;;;;;;;16.05;12.30;;;16.70;99.90;;;;;;5089737;28;20726;-61
2021/06/25 01:38:14;;;;;;;14.43;12.10;;;16.60;99.90;;;;;;5099469;28;20211;-62
2021/06/25 01:40:43;;;;;;;13.15;11.75;;;16.60;99.90;;;;;;5089053;28;20265;-60
2021/06/25 01:43:12;;;;;;;11.80;10.27;;;16.60;99.90;;;;;;5084155;28;20253;-59
2021/06/25 01:45:41;;;;;;;12.98;10.82;;;16.60;99.90;;;;;;5097818;28;20256;-61
2021/06/25 01:48:09;;;;;;;13.23;10.10;;;16.60;99.90;;;;;;5078629;28;20708;-60
2021/06/25 01:50:42;;;;;;;15.38;11.25;;;16.50;99.90;;;;;;5078724;28;20242;-61
2021/06/25 01:53:12;;;;;;;11.75;9.85;;;16.50;99.90;;;;;;5095489;28;20206;-61
2021/06/25 01:55:41;;;;;;;10.93;9.82;;;16.50;99.90;;;;;;5091154;28;20281;-61
2021/06/25 01:58:12;;;;;;;11.13;9.95;;;16.50;99.90;;;;;;5093230;28;20207;-61
2021/06/25 02:00:43;;;;;;;13.23;11.85;;;16.50;99.90;;;;;;5084403;28;20238;-61
2021/06/25 02:03:10;;;;;;;10.75;9.75;;;16.50;99.90;;;;;;5086366;28;20551;-60
2021/06/25 02:05:37;;;;;;;12.67;11.47;;;16.40;99.90;;;;;;5096373;28;20461;-61
2021/06/25 02:08:04;;;;;;;9.88;8.88;;;16.40;99.90;;;;;;5094375;28;20457;-61
2021/06/25 02:10:31;;;;;;;10.75;9.73;;;16.40;99.90;;;;;;5082813;28;20310;-61
2021/06/25 02:12:59;;;;;;;11.75;10.55;;;16.40;99.90;;;;;;5087587;28;20204;-61
2021/06/25 02:15:26;;;;;;;12.60;10.45;;;16.40;99.90;;;;;;5088836;28;20258;-62
2021/06/25 02:17:53;;;;;;;13.05;10.40;;;16.30;99.90;;;;;;5086537;28;20219;-61
2021/06/25 02:20:20;;;;;;;10.35;9.25;;;16.30;99.90;;;;;;5092282;28;20222;-60
2021/06/25 02:22:48;;;;;;;12.55;9.30;;;16.30;99.90;;;;;;5077953;28;20230;-61
2021/06/25 02:25:15;;;;;;;10.85;9.75;;;16.30;99.90;;;;;;5080730;28;20508;-60
2021/06/25 02:27:42;;;;;;;9.73;8.33;;;16.30;99.90;;;;;;5084732;28;20762;-60
2021/06/25 02:30:15;;;;;;;12.35;11.13;;;16.30;99.90;;;;;;5097339;28;20509;-60
2021/06/25 02:32:43;;;;;;;15.55;10.30;;;16.30;99.90;;;;;;5078443;28;20217;-60
2021/06/25 02:35:11;;;;;;;11.18;9.32;;;16.30;99.90;;;;;;5089897;28;20530;-61
2021/06/25 02:37:39;;;;;;;9.70;8.70;;;16.30;99.90;;;;;;5091295;28;20230;-61
2021/06/25 02:40:06;;;;;;;10.73;9.63;;;16.20;99.90;;;;;;5089754;28;20419;-61
2021/06/25 02:42:34;;;;;;;12.90;10.35;;;16.30;99.90;;;;;;5094365;28;20214;-61
2021/06/25 02:45:03;;;;;;;13.88;9.27;;;16.20;99.90;;;;;;5082727;28;20207;-61
2021/06/25 02:47:32;;;;;;;11.80;9.82;;;16.20;99.90;;;;;;5085332;28;20243;-61
2021/06/25 02:49:59;;;;;;;11.40;9.95;;;16.20;99.90;;;;;;5089680;28;20607;-60
2021/06/25 02:52:26;;;;;;;13.95;9.90;;;16.20;99.90;;;;;;5082301;28;20247;-61
2021/06/25 02:54:53;;;;;;;9.73;8.48;;;16.20;99.90;;;;;;5081483;28;20207;-60
2021/06/25 02:57:20;;;;;;;10.63;9.57;;;16.30;99.90;;;;;;5094521;28;20552;-61
2021/06/25 02:59:47;;;;;;;9.60;8.70;;;16.20;99.90;;;;;;5091001;28;20236;-60
2021/06/25 03:02:14;;;;;;;11.18;9.52;;;16.30;99.90;;;;;;5095595;28;20218;-61
2021/06/25 03:04:42;;;;;;;11.07;9.20;;;17.50;99.90;;;;;;5094576;28;20278;-60
2021/06/25 03:07:09;;;;;;;11.85;10.55;;;16.20;99.90;;;;;;5095622;28;20208;-61
2021/06/25 03:09:37;;;;;;;10.18;9.23;;;16.20;99.90;;;;;;5096367;28;20214;-61
2021/06/25 03:12:05;;;;;;;12.80;10.50;;;16.20;99.90;;;;;;5095347;28;20230;-61
2021/06/25 03:14:32;;;;;;;10.68;9.05;;;16.10;99.90;;;;;;5095972;28;20217;-61
2021/06/25 03:17:00;;;;;;;10.65;9.60;;;16.20;99.90;;;;;;5089938;28;20458;-60
2021/06/25 03:19:27;;;;;;;10.40;9.43;;;16.20;99.90;;;;;;5090997;28;20498;-60
2021/06/25 03:21:54;;;;;;;10.38;9.27;;;16.20;99.90;;;;;;5089342;28;20271;-60
2021/06/25 03:24:21;;;;;;;9.93;7.90;;;16.20;99.90;;;;;;5084438;28;20288;-60
2021/06/25 03:26:48;;;;;;;10.93;8.80;;;16.30;99.90;;;;;;5097575;28;20245;-60
2021/06/25 03:29:15;;;;;;;8.35;7.45;;;16.50;99.90;;;;;;5089742;28;20478;-61
2021/06/25 03:31:42;;;;;;;10.52;8.88;;;16.60;99.90;;;;;;5097397;28;20271;-61
2021/06/25 03:34:09;;;;;;;10.13;9.13;;;16.80;99.90;;;;;;5090312;28;20210;-61
2021/06/25 03:36:36;;;;;;;8.20;7.13;;;16.90;99.90;;;;;;5091349;28;20212;-60
2021/06/25 03:39:05;;;;;;;11.98;7.97;;;16.90;99.90;;;;;;5095956;28;20441;-60
2021/06/25 03:41:32;;;;;;;8.67;7.60;;;17.00;99.90;;;;;;5089800;28;20278;-61
2021/06/25 03:43:59;;;;;;;8.37;7.57;;;16.90;99.90;;;;;;5093060;28;20452;-61
2021/06/25 03:46:26;;;;;;;7.97;7.20;;;16.90;99.90;;;;;;5079526;28;20440;-61
2021/06/25 03:48:53;;;;;;;10.63;7.97;;;16.80;99.90;;;;;;5092040;28;20473;-61
2021/06/25 03:51:20;;;;;;;9.43;8.48;;;16.70;99.90;;;;;;5096967;28;20841;-61
2021/06/25 03:53:48;;;;;;;9.02;8.20;;;16.60;99.90;;;;;;5094719;28;20562;-62
2021/06/25 03:56:15;;;;;;;8.63;7.70;;;16.60;99.90;;;;;;5093953;28;20203;-61
2021/06/25 03:58:45;;;;;;;9.20;7.75;;;16.60;99.90;;;;;;5097858;28;20677;-59
2021/06/25 04:01:14;;;;;;;8.48;7.60;;;16.60;99.90;;;;;;5098738;28;20396;-60
2021/06/25 04:03:42;;;;;;;9.33;8.03;;;16.70;99.90;;;;;;5098085;28;20458;-60
2021/06/25 04:06:09;;;;;;;10.77;8.52;;;16.80;99.90;;;;;;5093887;28;20511;-61
2021/06/25 04:08:36;;;;;;;8.37;7.60;;;16.90;99.90;;;;;;5092898;28;20261;-62
2021/06/25 04:11:05;;;;;;;8.95;7.78;;;16.80;99.90;;;;;;5090955;28;20458;-60
2021/06/25 04:13:34;;;;;;;8.88;7.97;;;16.80;99.90;;;;;;5097756;28;20203;-61
2021/06/25 04:16:01;;;;;;;8.43;7.63;;;16.90;99.90;;;;;;5096860;28;20428;-61
2021/06/25 04:18:28;;;;;;;9.20;8.27;;;17.00;99.90;;;;;;5083465;28;20448;-59
2021/06/25 04:20:56;;;;;;;10.30;8.60;;;17.00;99.90;;;;;;5094859;28;20785;-61
2021/06/25 04:23:23;;;;;;;10.00;9.02;;;16.80;99.90;;;;;;5097995;28;20720;-61
2021/06/25 04:25:50;;;;;;;9.77;8.87;;;16.80;99.90;;;;;;5090097;28;20282;-60
2021/06/25 04:28:18;;;;;;;16.07;8.30;;;16.90;99.90;;;;;;5097362;28;20778;-61
2021/06/25 04:30:45;;;;;;;10.80;7.70;;;16.90;99.90;;;;;;5085228;28;20485;-62
2021/06/25 04:33:13;;;;;;;9.32;8.30;;;17.00;99.90;;;;;;5096294;28;20465;-61
2021/06/25 04:35:42;;;;;;;8.80;7.82;;;17.00;99.90;;;;;;5096230;28;20790;-62
2021/06/25 04:38:10;;;;;;;9.20;8.30;;;17.00;99.90;;;;;;5097815;28;20203;-60
2021/06/25 04:40:40;;;;;;;9.75;8.88;;;16.90;99.90;;;;;;5094384;28;20427;-62
2021/06/25 04:43:09;;;;;;;9.70;8.40;;;17.00;99.90;;;;;;5087206;28;20495;-62
2021/06/25 04:45:38;;;;;;;8.73;7.68;;;17.20;99.90;;;;;;5086304;28;20568;-61
2021/06/25 04:48:08;;;;;;;9.40;8.47;;;17.20;99.90;;;;;;5081974;28;20204;-61
2021/06/25 04:50:35;;;;;;;10.13;8.40;;;17.40;99.90;;;;;;5082926;28;20441;-62
2021/06/25 04:53:03;;;;;;;10.87;8.03;;;17.50;99.90;;;;;;5083901;28;20441;-60
2021/06/25 04:55:30;;;;;;;9.80;8.77;;;17.60;99.90;;;;;;5087651;28;20690;-60
2021/06/25 04:57:57;;;;;;;9.63;8.73;;;17.50;99.90;;;;;;5091828;28;20419;-60
2021/06/25 05:00:28;;;;;;;9.77;8.80;;;17.50;99.90;;;;;;5096784;28;20800;-61
2021/06/25 05:02:56;;;;;;;14.83;8.57;;;17.50;99.90;;;;;;5097600;28;20451;-60
2021/06/25 05:05:23;;;;;;;8.43;7.60;;;17.60;99.90;;;;;;5097435;28;20406;-61
2021/06/25 05:07:50;;;;;;;9.00;8.10;;;17.30;99.90;;;;;;5097949;28;20468;-60
2021/06/25 05:10:17;;;;;;;8.70;7.20;;;17.30;99.90;;;;;;5095833;28;20584;-60
2021/06/25 05:12:44;;;;;;;8.80;8.00;;;17.20;99.90;;;;;;5095560;28;20488;-60
2021/06/25 05:15:12;;;;;;;7.50;6.80;;;17.30;99.90;;;;;;5093769;28;20415;-59
2021/06/25 05:17:39;;;;;;;9.30;5.63;;;17.20;99.90;;;;;;5097588;28;20465;-59
2021/06/25 05:20:26;;;;;;;7.13;6.50;;;18.10;99.90;;;;;;5095780;28;20460;-60
2021/06/25 05:22:54;;;;;;;6.38;5.78;;;17.40;99.90;;;;;;5097544;28;20447;-60
2021/06/25 05:25:21;;;;;;;6.40;5.80;;;17.00;99.90;;;;;;5092288;28;20519;-60
2021/06/25 05:27:48;;;;;;;6.13;5.60;;;17.10;99.90;;;;;;5096392;28;20428;-61
2021/06/25 05:30:15;;;;;;;6.90;5.90;;;17.20;99.90;;;;;;5095234;28;20830;-62
2021/06/25 05:32:43;;;;;;;5.67;5.17;;;17.20;99.90;;;;;;5095589;28;20549;-61
2021/06/25 05:35:10;;;;;;;6.13;5.60;;;17.40;99.90;;;;;;5093627;28;20470;-60
2021/06/25 05:37:37;;;;;;;7.40;6.70;;;17.60;99.90;;;;;;5087934;28;20776;-60
2021/06/25 05:40:05;;;;;;;6.67;5.83;;;17.60;99.90;;;;;;5080065;28;20422;-60
2021/06/25 05:42:32;;;;;;;9.60;6.60;;;17.60;99.90;;;;;;5082291;28;20572;-61
2021/06/25 05:44:59;;;;;;;11.50;5.80;;;17.60;99.90;;;;;;5091432;28;20467;-59
2021/06/25 05:47:26;;;;;;;6.10;5.50;;;17.60;99.90;;;;;;5095982;28;20463;-60
2021/06/25 05:49:53;;;;;;;5.27;4.77;;;17.60;99.90;;;;;;5088640;28;20611;-60
2021/06/25 05:52:21;;;;;;;7.50;6.70;;;17.50;99.90;;;;;;5079599;28;20531;-61
2021/06/25 05:54:48;;;;;;;10.20;5.87;;;17.50;99.90;;;;;;5077965;28;20466;-61
2021/06/25 05:57:15;;;;;;;8.17;6.30;;;17.60;99.90;;;;;;5092232;28;20460;-61
2021/06/25 05:59:42;;;;;;;7.63;6.93;;;17.60;99.90;;;;;;5095655;28;20440;-61
2021/06/25 06:02:10;;;;;;;5.57;4.90;;;17.40;99.90;;;;;;5094577;28;20461;-60
2021/06/25 06:04:37;;;;;;;6.80;5.80;;;16.90;99.90;;;;;;5095415;28;20414;-60
2021/06/25 06:07:06;;;;;;;6.93;6.23;;;17.30;99.90;;;;;;5093700;28;20460;-61
2021/06/25 06:09:33;;;;;;;7.17;6.37;;;16.80;99.90;;;;;;5091908;28;20428;-61
2021/06/25 06:12:00;;;;;;;7.37;6.67;;;16.70;99.90;;;;;;5095013;28;20484;-62
2021/06/25 06:14:27;;;;;;;7.63;6.97;;;16.70;99.90;;;;;;5094360;28;20654;-60
2021/06/25 06:16:54;;;;;;;12.73;7.07;;;16.80;99.90;;;;;;5096071;28;20538;-61
2021/06/25 06:19:21;;;;;;;8.07;7.37;;;16.80;99.90;;;;;;5093287;28;20233;-62
2021/06/25 06:33:03;;;;;;;7.90;7.10;;;17.70;99.90;;;;;;5093279;28;20507;-61
2021/06/25 06:35:30;;;;;;;6.93;6.30;;;18.10;99.90;;;;;;5088229;28;20444;-62
2021/06/25 06:38:02;;;;;;;11.80;7.10;;;18.50;99.90;;;;;;5081422;28;20423;-60
2021/06/25 06:40:30;;;;;;;6.60;6.00;;;18.70;99.90;;;;;;5090477;28;20430;-62
2021/06/25 06:42:59;;;;;;;7.50;5.50;;;18.80;99.90;;;;;;5095349;28;20454;-61
2021/06/25 06:45:26;;;;;;;6.40;5.80;;;18.80;99.90;;;;;;5095382;28;20776;-63
2021/06/25 06:47:53;;;;;;;6.10;5.60;;;18.60;99.90;;;;;;5090035;28;20446;-62
2021/06/25 06:50:20;;;;;;;6.23;5.60;;;18.40;99.90;;;;;;5087762;28;20457;-61
2021/06/25 06:52:50;;;;;;;7.30;6.60;;;17.90;99.90;;;;;;5088108;28;20476;-61
2021/06/25 06:55:20;;;;;;;7.60;6.90;;;17.80;99.90;;;;;;5093583;28;20420;-62
2021/06/25 06:57:47;;;;;;;7.03;6.43;;;17.80;99.90;;;;;;5094292;28;20420;-62
2021/06/25 07:00:15;;;;;;;7.03;6.43;;;17.60;99.90;;;;;;5089933;28;20446;-62
2021/06/25 07:02:43;;;;;;;7.07;6.47;;;17.50;99.90;;;;;;5093451;28;20437;-62
2021/06/25 07:05:12;;;;;;;8.60;7.57;;;17.40;99.90;;;;;;5091937;28;20423;-62
2021/06/25 07:07:41;;;;;;;8.13;7.33;;;17.30;99.90;;;;;;5096020;28;20424;-61
2021/06/25 07:10:10;;;;;;;7.73;6.60;;;17.30;99.90;;;;;;5095833;28;20451;-61
2021/06/25 07:12:39;;;;;;;9.10;7.90;;;17.30;99.90;;;;;;5095026;28;20722;-61
2021/06/25 07:15:07;;;;;;;8.27;7.47;;;17.30;99.90;;;;;;5089133;28;20717;-61
2021/06/25 07:17:35;;;;;;;8.37;7.57;;;17.30;99.90;;;;;;5095344;28;20445;-63
2021/06/25 07:20:05;;;;;;;7.00;6.30;;;17.60;99.90;;;;;;5095431;28;20471;-61
2021/06/25 07:22:33;;;;;;;10.00;6.90;;;17.80;99.90;;;;;;5090103;28;20888;-61
2021/06/25 07:25:00;;;;;;;8.87;8.10;;;17.70;99.90;;;;;;5094188;28;20445;-62
2021/06/25 07:27:27;;;;;;;7.83;7.13;;;17.50;99.90;;;;;;5093550;28;20503;-62
2021/06/25 07:29:55;;;;;;;7.67;6.97;;;17.40;99.90;;;;;;5094727;28;20443;-61
2021/06/25 07:32:22;;;;;;;10.10;9.20;;;17.60;99.90;;;;;;5091993;28;20568;-62
2021/06/25 07:34:49;;;;;;;7.83;7.03;;;17.80;99.90;;;;;;5094005;28;20538;-62
2021/06/25 07:37:19;;;;;;;7.67;7.07;;;17.80;99.90;;;;;;5094356;28;20469;-62
2021/06/25 07:39:46;;;;;;;8.07;7.27;;;17.70;99.90;;;;;;5094202;28;20578;-63
2021/06/25 07:42:13;;;;;;;6.47;5.97;;;17.80;99.90;;;;;;5096192;28;20441;-62
2021/06/25 07:44:40;;;;;;;7.90;7.17;;;18.10;99.90;;;;;;5090548;28;20478;-62
2021/06/25 07:47:07;;;;;;;6.30;5.80;;;18.30;99.90;;;;;;5094238;28;20437;-62
2021/06/25 07:49:35;;;;;;;6.43;5.93;;;18.50;99.90;;;;;;5081283;28;20515;-61
2021/06/25 07:52:02;;;;;;;8.30;7.50;;;18.40;99.90;;;;;;5088456;28;20470;-61
2021/06/25 07:54:29;;;;;;;7.00;6.30;;;18.50;99.90;;;;;;5089026;28;20429;-62
2021/06/25 07:56:56;;;;;;;7.87;7.27;;;18.80;99.90;;;;;;5087775;28;20516;-62
2021/06/25 07:59:24;;;;;;;5.50;4.97;;;19.10;99.90;;;;;;5092690;28;20489;-61
2021/06/25 08:01:51;;;;;;;8.40;6.30;;;20.10;99.90;;;;;;5090078;28;20615;-62
2021/06/25 08:04:19;;;;;;;5.13;4.73;;;22.10;99.90;;;;;;5093716;28;20648;-61
2021/06/25 08:06:46;;;;;;;5.13;4.80;;;25.00;99.90;;;;;;5093812;28;20445;-60
2021/06/25 08:09:13;;;;;;;4.93;4.63;;;26.60;99.90;;;;;;5091389;28;20493;-61
2021/06/25 08:11:40;;;;;;;7.90;6.93;;;27.30;96.70;;;;;;5086983;28;20841;-61
2021/06/25 08:14:07;;;;;;;6.93;5.20;;;25.30;99.90;;;;;;5093778;28;20642;-60
2021/06/25 08:16:35;;;;;;;5.57;5.17;;;24.80;99.90;;;;;;5097717;28;20765;-61
2021/06/25 08:19:02;;;;;;;4.90;4.60;;;24.50;99.90;;;;;;5097791;28;20443;-60
2021/06/25 08:21:30;;;;;;;6.73;6.23;;;24.30;99.90;;;;;;5098072;28;20696;-61
2021/06/25 08:23:57;;;;;;;5.93;5.60;;;24.20;99.90;;;;;;5098245;28;20473;-61
2021/06/25 08:26:24;;;;;;;5.70;5.40;;;24.10;99.90;;;;;;5097753;28;20439;-62
2021/06/25 08:28:53;;;;;;;5.40;5.00;;;24.40;99.90;;;;;;5096538;28;20443;-60
2021/06/25 08:31:21;;;;;;;6.03;5.70;;;24.60;99.90;;;;;;5093473;28;20494;-62
2021/06/25 08:33:49;;;;;;;6.07;5.47;;;24.20;99.90;;;;;;5092813;28;20677;-61
2021/06/25 08:36:16;;;;;;;5.23;4.93;;;24.50;99.90;;;;;;5097591;28;20520;-61
2021/06/25 08:38:43;;;;;;;6.00;5.60;;;25.00;99.90;;;;;;5089330;28;20633;-61
2021/06/25 08:41:11;;;;;;;5.83;5.43;;;24.60;99.90;;;;;;5091286;28;20440;-61
2021/06/25 08:43:38;;;;;;;6.03;5.63;;;23.80;99.90;;;;;;5091536;28;20681;-61
2021/06/25 08:46:05;;;;;;;6.37;5.87;;;23.00;99.90;;;;;;5096962;28;20445;-61
2021/06/25 08:48:36;;;;;;;5.70;5.33;;;22.20;99.90;;;;;;5086646;28;20446;-61
2021/06/25 08:51:06;;;;;;;5.47;5.07;;;21.90;99.90;;;;;;5092385;28;20629;-62
2021/06/25 08:53:33;;;;;;;5.20;4.90;;;21.40;99.90;;;;;;5089875;28;20806;-61
2021/06/25 08:56:03;;;;;;;5.10;4.70;;;21.00;99.90;;;;;;5090272;28;20534;-62
2021/06/25 08:58:30;;;;;;;4.73;4.30;;;20.50;99.90;;;;;;5096403;28;20518;-63
2021/06/25 09:00:58;;;;;;;4.80;4.40;;;20.20;99.90;;;;;;5093840;28;20454;-62
2021/06/25 09:03:29;;;;;;;6.03;5.53;;;20.00;99.90;;;;;;5097780;28;20450;-62
2021/06/25 09:06:14;;;;;;;5.30;4.90;;;19.80;99.90;;;;;;5092631;28;20433;-61
2021/06/25 09:08:42;;;;;;;5.40;4.90;;;19.80;99.90;;;;;;5094528;28;20486;-61
2021/06/25 09:11:25;;;;;;;5.63;5.03;;;20.00;99.90;;;;;;5094442;28;20635;-61
2021/06/25 09:13:57;;;;;;;5.43;5.03;;;20.10;99.90;;;;;;5092956;28;20457;-62
2021/06/25 09:16:31;;;;;;;6.73;5.80;;;19.90;99.90;;;;;;5095593;28;20446;-62
2021/06/25 09:19:17;;;;;;;6.53;6.03;;;19.40;99.90;;;;;;5095911;28;20497;-63
2021/06/25 09:22:01;;;;;;;7.23;6.20;;;18.80;99.90;;;;;;5095244;28;20441;-63
2021/06/25 09:24:30;;;;;;;5.47;4.97;;;18.80;99.90;;;;;;5096270;28;20519;-62
2021/06/25 09:27:03;;;;;;;8.00;6.13;;;18.70;99.90;;;;;;5088972;28;20764;-62
2021/06/25 09:29:40;;;;;;;5.10;4.60;;;18.60;99.90;;;;;;5084571;28;20429;-63
2021/06/25 09:32:14;;;;;;;6.00;5.40;;;18.10;99.90;;;;;;5094929;28;20887;-63
2021/06/25 09:34:53;;;;;;;6.03;5.53;;;18.00;99.90;;;;;;5091341;28;20414;-63
2021/06/25 09:37:23;;;;;;;5.97;5.47;;;18.10;99.90;;;;;;5098056;28;20431;-62
2021/06/25 09:40:21;;;;;;;6.53;5.90;;;18.40;99.90;;;;;;5093793;28;20739;-61
2021/06/25 09:43:13;;;;;;;6.43;5.93;;;18.90;99.90;;;;;;5083578;28;20483;-61
2021/06/25 09:45:56;;;;;;;5.40;4.90;;;19.90;99.90;;;;;;5093013;28;20443;-61
2021/06/25 09:48:50;;;;;;;5.57;5.17;;;20.50;99.90;;;;;;5096190;28;20476;-61
2021/06/25 09:51:20;;;;;;;5.90;5.40;;;21.20;99.90;;;;;;5076750;28;20444;-62
2021/06/25 09:54:05;;;;;;;8.30;6.30;;;21.50;99.90;;;;;;5076413;28;20812;-61
2021/06/25 09:56:38;;;;;;;5.70;5.30;;;21.60;99.90;;;;;;5084608;28;20448;-62
2021/06/25 10:02:24;;;;;;;7.63;5.83;;;21.90;99.90;;;;;;5092239;28;20471;-60
2021/06/25 10:04:55;;;;;;;7.23;6.03;;;21.80;99.90;;;;;;5081646;28;20477;-62
2021/06/25 10:07:30;;;;;;;6.53;6.03;;;22.10;99.90;;;;;;5091234;28;20428;-61
2021/06/25 10:10:09;;;;;;;5.73;5.30;;;22.60;99.90;;;;;;5088846;28;20451;-61
2021/06/25 10:12:45;;;;;;;6.03;5.57;;;23.20;99.90;;;;;;5086642;28;20459;-61
2021/06/25 10:15:15;;;;;;;5.97;5.57;;;24.30;99.90;;;;;;5084256;28;20634;-61
2021/06/25 10:17:50;;;;;;;6.10;5.70;;;24.00;99.90;;;;;;5091271;28;20457;-64
2021/06/25 10:20:23;;;;;;;6.07;5.63;;;23.30;99.90;;;;;;5087368;28;20460;-62
2021/06/25 10:22:52;;;;;;;5.43;5.10;;;23.00;99.90;;;;;;5095147;28;20496;-60
2021/06/25 10:25:24;;;;;;;6.27;5.87;;;22.90;99.90;;;;;;5095607;28;20412;-63
2021/06/25 10:27:55;;;;;;;6.40;5.90;;;23.30;99.90;;;;;;5090277;28;20416;-62
2021/06/25 10:30:28;;;;;;;6.40;5.90;;;22.90;99.90;;;;;;5095656;28;20670;-61
2021/06/25 10:32:57;;;;;;;6.03;5.63;;;23.30;99.90;;;;;;5092894;28;20576;-61
2021/06/25 10:35:24;;;;;;;6.10;5.60;;;23.40;99.90;;;;;;5091387;28;20462;-62
2021/06/25 10:37:51;;;;;;;6.30;5.80;;;23.50;99.90;;;;;;5088860;28;20470;-61
2021/06/25 10:40:20;;;;;;;6.50;5.90;;;24.00;99.90;;;;;;5093873;28;20413;-61
2021/06/25 10:42:47;;;;;;;6.23;5.73;;;24.20;99.90;;;;;;5095239;28;20827;-63
2021/06/25 10:45:14;;;;;;;5.00;4.70;;;23.90;99.90;;;;;;5094578;28;20488;-61
2021/06/25 10:47:53;;;;;;;6.10;5.80;;;23.90;99.90;;;;;;5093750;28;20467;-61
2021/06/25 10:50:24;;;;;;;6.87;6.47;;;24.10;99.90;;;;;;5091213;28;20492;-60
2021/06/25 10:53:14;;;;;;;5.97;5.67;;;24.10;99.90;;;;;;5094942;28;20453;-62
2021/06/25 10:55:45;;;;;;;6.87;6.37;;;23.90;99.90;;;;;;5094514;28;20409;-60
2021/06/25 10:58:23;;;;;;;5.50;5.20;;;23.80;99.90;;;;;;5095513;28;20488;-61
2021/06/25 11:00:56;;;;;;;5.73;5.33;;;23.90;99.90;;;;;;5089704;28;20404;-61
2021/06/25 11:03:38;;;;;;;5.40;4.97;;;24.20;99.90;;;;;;5092241;28;20626;-61
2021/06/25 11:06:09;;;;;;;6.07;5.63;;;24.10;99.90;;;;;;5092151;28;20568;-61
2021/06/25 11:09:00;;;;;;;5.70;5.30;;;23.70;99.90;;;;;;5082637;28;20619;-61
2021/06/25 11:11:28;;;;;;;6.10;5.63;;;23.00;99.90;;;;;;5095469;28;20557;-61
2021/06/25 11:13:56;;;;;;;6.30;5.80;;;23.00;99.90;;;;;;5089118;28;20485;-60
2021/06/25 11:16:24;;;;;;;6.20;5.70;;;23.20;99.90;;;;;;5093303;28;20753;-61
2021/06/25 11:18:52;;;;;;;6.13;5.73;;;23.30;99.90;;;;;;5098392;28;20440;-60
2021/06/25 11:21:19;;;;;;;7.63;7.00;;;23.00;99.90;;;;;;5103604;28;20637;-61
2021/06/25 11:23:47;;;;;;;7.23;6.73;;;23.00;99.90;;;;;;5094875;28;20476;-61
2021/06/25 11:26:20;;;;;;;6.57;6.17;;;22.00;99.90;;;;;;5096035;28;20774;-61
2021/06/25 11:28:56;;;;;;;5.70;5.30;;;22.10;99.90;;;;;;5094980;28;20443;-62
2021/06/25 11:31:28;;;;;;;5.63;5.23;;;22.20;99.90;;;;;;5093808;28;20462;-61
2021/06/25 11:34:00;;;;;;;6.00;5.50;;;21.90;99.90;;;;;;5086196;28;20480;-61
2021/06/25 11:36:53;;;;;;;6.47;5.97;;;22.10;99.90;;;;;;5094881;28;20448;-63
2021/06/25 11:39:35;;;;;;;5.67;4.97;;;22.40;99.90;;;;;;5096942;28;20433;-62
2021/06/25 11:42:09;;;;;;;5.30;4.90;;;22.30;99.90;;;;;;5098370;28;20501;-62
2021/06/25 11:44:42;;;;;;;5.47;5.10;;;22.40;99.90;;;;;;5098234;28;20445;-61
2021/06/25 11:47:29;;;;;;;5.33;4.93;;;22.80;99.90;;;;;;5096314;28;20439;-60
2021/06/25 11:50:01;;;;;;;5.63;5.30;;;23.10;99.90;;;;;;5079603;28;20462;-62
2021/06/25 11:52:33;;;;;;;6.03;5.63;;;23.50;99.90;;;;;;5092209;28;20452;-62
2021/06/25 11:55:08;;;;;;;5.53;5.03;;;23.80;99.90;;;;;;5085364;28;20499;-61
2021/06/25 11:57:37;;;;;;;5.83;5.43;;;24.30;99.90;;;;;;5092394;28;20482;-61
2021/06/25 12:00:08;;;;;;;6.70;6.30;;;24.40;99.90;;;;;;5099621;28;20439;-62
2021/06/25 12:02:46;;;;;;;5.53;5.20;;;23.60;99.90;;;;;;5105365;28;20538;-61
2021/06/25 12:05:34;;;;;;;5.37;4.97;;;23.40;99.90;;;;;;5094578;28;20459;-60
2021/06/25 12:08:14;;;;;;;5.83;5.43;;;23.20;99.90;;;;;;5098200;28;20583;-60
2021/06/25 12:10:53;;;;;;;5.63;5.27;;;23.00;99.90;;;;;;5095364;28;20488;-61
2021/06/25 12:13:20;;;;;;;5.80;5.30;;;23.00;99.90;;;;;;5094842;28;20482;-60
2021/06/25 12:15:50;;;;;;;5.90;5.40;;;23.50;99.90;;;;;;5088052;28;20511;-60
2021/06/25 12:18:22;;;;;;;9.37;5.90;;;24.10;99.90;;;;;;5096743;28;20496;-60
2021/06/25 12:21:02;;;;;;;20.10;6.30;;;24.20;99.90;;;;;;5090299;28;20466;-60
2021/06/25 12:23:29;;;;;;;5.27;4.97;;;24.50;99.90;;;;;;5095476;28;20484;-60
2021/06/25 12:25:56;;;;;;;6.70;6.30;;;24.90;99.80;;;;;;5099096;28;20781;-61
2021/06/25 12:28:27;;;;;;;6.10;5.70;;;24.30;99.90;;;;;;5098517;28;20446;-61
2021/06/25 12:30:59;;;;;;;6.07;5.67;;;24.10;99.90;;;;;;5097916;28;20446;-61
2021/06/25 12:33:34;;;;;;;5.80;5.40;;;23.60;99.90;;;;;;5089563;28;20474;-61
2021/06/25 12:36:02;;;;;;;6.10;5.23;;;23.70;99.90;;;;;;5096255;28;20413;-61
2021/06/25 12:38:30;;;;;;;5.93;5.43;;;24.40;99.90;;;;;;5097992;28;20456;-61
2021/06/25 12:40:59;;;;;;;5.40;5.10;;;25.20;99.90;;;;;;5091336;28;20472;-61
2021/06/25 12:43:28;;;;;;;6.10;5.80;;;25.40;99.90;;;;;;5089594;28;20462;-61
2021/06/25 12:46:11;;;;;;;5.77;5.47;;;25.50;98.00;;;;;;5094521;28;20546;-61
2021/06/25 12:48:48;;;;;;;6.40;6.07;;;25.30;98.80;;;;;;5083475;28;20432;-61
2021/06/25 12:51:23;;;;;;;6.30;5.90;;;25.10;99.00;;;;;;5089919;28;20624;-62
2021/06/25 12:53:57;;;;;;;7.23;6.83;;;25.10;98.80;;;;;;5090455;28;20794;-61
2021/06/25 12:56:47;;;;;;;6.43;6.03;;;25.10;99.00;;;;;;5084155;28;20478;-61
2021/06/25 12:59:21;;;;;;;6.90;6.40;;;25.00;99.20;;;;;;5090688;28;20572;-61
2021/06/25 13:01:58;;;;;;;7.33;6.93;;;24.40;99.90;;;;;;5088836;28;20843;-61
2021/06/25 13:04:26;;;;;;;5.67;5.37;;;24.10;99.90;;;;;;5092061;28;20462;-61
2021/06/25 13:06:58;;;;;;;7.93;7.20;;;24.10;99.90;;;;;;5093597;28;20463;-61
2021/06/25 13:09:27;;;;;;;7.50;7.00;;;24.40;99.90;;;;;;5097474;28;20439;-60
2021/06/25 13:12:11;;;;;;;6.47;6.00;;;24.10;99.90;;;;;;5097817;28;20532;-61